Terminal Aerodrome Forecast
Issued by NWS Pueblo, CO

Home | Current Version | Previous Version | Text Only | Print | Product List | Glossary On
Versions: 1 2 3 4 5 6 7 8 9 10 11 12 13 14 15 16
000
FTUS45 KPUB 252337
TAFALS
TAF
KALS 252337Z 2600/2624 17010KT P6SM VCTS SCT080CB BKN150
     FM260300 20009KT P6SM SCT110 BKN150
     FM260600 VRB06KT P6SM SCT110 SCT150
     FM262000 20009KT P6SM VCTS SCT060CB BKN120=

USA.gov is the U.S. government's official web portal to all federal, state and local government web resources and services.